createdAt,value
2022-07-25T00:01:06.965Z,44.73
2022-07-25T00:06:18.011Z,44.69
2022-07-25T00:11:43.419Z,44.83
2022-07-25T00:17:02.060Z,45.16
2022-07-25T00:22:21.919Z,45.19
2022-07-25T00:27:37.455Z,45.04
2022-07-25T00:32:52.943Z,45.40
2022-07-25T00:38:16.325Z,45.50
2022-07-25T00:43:34.709Z,45.62
2022-07-25T00:48:44.475Z,45.90
2022-07-25T00:54:10.497Z,45.69
2022-07-25T00:59:23.506Z,45.81
2022-07-25T01:05:01.608Z,46.09
2022-07-25T01:10:11.661Z,46.40
2022-07-25T01:15:21.616Z,46.73
2022-07-25T01:20:29.409Z,47.07
2022-07-25T01:25:43.045Z,47.15
2022-07-25T01:30:57.246Z,47.26
2022-07-25T01:41:39.616Z,47.99
2022-07-25T01:46:50.700Z,48.35
2022-07-25T01:52:18.476Z,48.50
2022-07-25T01:57:55.745Z,48.56
2022-07-25T02:03:46.158Z,49.06
2022-07-25T02:08:53.069Z,49.30
2022-07-25T02:13:58.362Z,49.41
2022-07-25T02:19:07.507Z,49.46
2022-07-25T02:24:13.454Z,50.13
2022-07-25T02:29:21.891Z,50.61
2022-07-25T02:34:33.702Z,50.91
2022-07-25T02:39:45.758Z,51.26
2022-07-25T02:44:50.530Z,51.34
2022-07-25T02:50:03.011Z,51.82
2022-07-25T02:55:14.804Z,52.07
2022-07-25T03:00:24.482Z,52.31
2022-07-25T03:05:44.599Z,52.44
2022-07-25T03:10:56.607Z,52.76
2022-07-25T03:16:07.031Z,52.98
2022-07-25T03:21:12.095Z,52.89
2022-07-25T03:26:25.379Z,53.44
2022-07-25T03:31:32.812Z,53.62
2022-07-25T03:36:54.986Z,54.15
2022-07-25T03:42:09.963Z,54.27
2022-07-25T03:47:20.180Z,54.47
2022-07-25T03:52:27.512Z,54.70
2022-07-25T03:57:40.979Z,55.24
2022-07-25T04:02:58.822Z,55.17
2022-07-25T04:08:03.161Z,55.53
2022-07-25T04:13:12.604Z,55.57
2022-07-25T04:18:25.195Z,55.76
2022-07-25T04:23:38.547Z,56.04
2022-07-25T04:28:55.819Z,56.21
2022-07-25T04:34:02.642Z,56.21
2022-07-25T04:39:37.680Z,56.48
2022-07-25T04:44:47.085Z,57.00
2022-07-25T04:49:51.520Z,56.88
2022-07-25T04:54:56.651Z,56.88
2022-07-25T05:00:08.113Z,57.06
2022-07-25T05:05:24.460Z,56.84
2022-07-25T05:10:48.943Z,54.28
2022-07-25T05:16:04.380Z,53.25
2022-07-25T05:21:29.895Z,53.19
2022-07-25T05:26:43.173Z,48.95
2022-07-25T05:31:50.447Z,45.81
2022-07-25T05:37:04.546Z,45.24
2022-07-25T05:42:10.427Z,43.65
2022-07-25T05:47:22.218Z,39.20
2022-07-25T05:52:29.597Z,35.96
2022-07-25T05:57:34.894Z,33.56
2022-07-25T06:03:06.488Z,30.71
2022-07-25T06:08:15.793Z,29.64
2022-07-25T06:13:25.300Z,28.63
2022-07-25T06:18:34.980Z,26.54
2022-07-25T06:23:43.850Z,25.84
2022-07-25T06:29:01.909Z,24.65
2022-07-25T06:34:25.778Z,23.68
2022-07-25T06:39:46.110Z,23.69
2022-07-25T06:44:56.127Z,22.65
2022-07-25T06:50:04.687Z,21.64
2022-07-25T06:55:23.365Z,21.69
2022-07-25T07:00:43.003Z,23.20
2022-07-25T07:06:13.665Z,23.55
2022-07-25T07:11:27.849Z,25.17
2022-07-25T07:22:04.483Z,27.68
2022-07-25T07:27:15.387Z,26.29
2022-07-25T07:32:28.636Z,26.64
2022-07-25T07:37:44.587Z,28.26
2022-07-25T07:43:03.727Z,29.18
2022-07-25T07:48:10.885Z,28.21
2022-07-25T07:53:23.790Z,28.91
2022-07-25T07:58:35.875Z,29.03
2022-07-25T08:03:46.463Z,28.90
2022-07-25T08:08:57.716Z,29.86
2022-07-25T08:14:03.156Z,30.24
2022-07-25T08:19:07.745Z,30.83
2022-07-25T08:24:21.730Z,30.41
2022-07-25T08:29:30.255Z,30.16
2022-07-25T08:34:39.129Z,30.37
2022-07-25T08:39:48.431Z,31.04
2022-07-25T08:45:02.029Z,30.88
2022-07-25T08:50:13.128Z,31.20
2022-07-25T08:55:22.291Z,30.00
2022-07-25T09:00:40.556Z,29.80
2022-07-25T09:05:51.230Z,29.60
2022-07-25T09:10:58.239Z,29.49
2022-07-25T09:16:04.245Z,30.56
2022-07-25T09:21:25.123Z,30.11
2022-07-25T09:26:47.533Z,29.94
2022-07-25T09:31:55.187Z,30.06
2022-07-25T09:37:11.621Z,29.48
2022-07-25T09:42:24.379Z,30.94
2022-07-25T09:47:32.798Z,29.16
2022-07-25T09:52:37.338Z,29.42
2022-07-25T09:57:58.330Z,28.96
2022-07-25T10:03:44.691Z,29.21
2022-07-25T10:09:04.801Z,28.21
2022-07-25T10:14:21.109Z,28.21
2022-07-25T10:20:01.314Z,27.48
2022-07-25T10:25:16.072Z,27.61
2022-07-25T10:30:31.663Z,27.88
2022-07-25T10:35:44.574Z,27.40
2022-07-25T10:41:05.735Z,27.73
2022-07-25T10:46:33.605Z,28.50
2022-07-25T10:51:42.076Z,27.15
2022-07-25T10:57:00.784Z,27.56
2022-07-25T11:02:24.438Z,27.17
2022-07-25T11:07:36.426Z,26.77
2022-07-25T11:12:47.030Z,26.11
2022-07-25T11:18:01.001Z,25.53
2022-07-25T11:23:09.002Z,26.02
2022-07-25T11:28:16.645Z,25.77
2022-07-25T11:33:27.624Z,26.97
2022-07-25T11:38:37.135Z,26.28
2022-07-25T11:43:51.223Z,26.18
2022-07-25T11:49:15.854Z,25.74
2022-07-25T11:54:20.893Z,26.58
2022-07-25T11:59:28.564Z,25.82
2022-07-25T12:04:45.611Z,26.03
2022-07-25T12:10:00.267Z,25.65
2022-07-25T12:15:10.320Z,26.06
2022-07-25T12:20:30.886Z,25.56
2022-07-25T12:25:43.035Z,25.94
2022-07-25T12:30:58.664Z,25.81
2022-07-25T12:36:17.812Z,25.93
2022-07-25T12:41:27.452Z,26.19
2022-07-25T12:46:35.820Z,26.14
2022-07-25T12:51:54.668Z,25.57
2022-07-25T12:57:04.628Z,25.54
2022-07-25T13:02:15.308Z,24.84
2022-07-25T13:07:30.716Z,25.48
2022-07-25T13:12:37.257Z,25.85
2022-07-25T13:17:53.159Z,25.23
2022-07-25T13:23:16.339Z,24.98
2022-07-25T13:28:26.702Z,25.74
2022-07-25T13:33:33.259Z,25.37
2022-07-25T13:38:44.584Z,25.34
2022-07-25T13:43:51.213Z,25.54
2022-07-25T13:49:02.220Z,25.42
2022-07-25T13:54:18.779Z,25.63
2022-07-25T13:59:28.017Z,25.57
2022-07-25T14:04:52.674Z,25.48
2022-07-25T14:10:08.901Z,25.57
2022-07-25T14:15:26.348Z,25.45
2022-07-25T14:20:43.303Z,25.29
2022-07-25T14:26:00.515Z,25.59
2022-07-25T14:31:20.215Z,25.85
2022-07-25T14:36:44.873Z,25.93
2022-07-25T14:42:05.847Z,25.31
2022-07-25T14:47:27.403Z,26.08
2022-07-25T14:52:46.494Z,26.21
2022-07-25T14:58:29.927Z,26.59
2022-07-25T15:03:51.379Z,26.19
2022-07-25T15:14:56.186Z,26.87
2022-07-25T15:20:15.180Z,27.36
2022-07-25T15:26:00.123Z,27.35
2022-07-25T15:31:15.674Z,27.53
2022-07-25T15:36:29.771Z,27.67
2022-07-25T15:41:35.352Z,27.75
2022-07-25T15:46:52.862Z,28.02
2022-07-25T15:52:19.478Z,27.53
2022-07-25T15:57:49.216Z,28.02
2022-07-25T16:03:03.541Z,28.17
2022-07-25T16:08:11.921Z,28.34
2022-07-25T16:13:18.816Z,28.56
2022-07-25T16:18:28.765Z,28.61
2022-07-25T16:23:41.572Z,29.25
2022-07-25T16:28:49.707Z,41.24
2022-07-25T16:33:59.656Z,48.79
2022-07-25T16:39:05.991Z,53.78
2022-07-25T16:44:11.649Z,57.29
2022-07-25T16:49:27.687Z,59.94
2022-07-25T16:54:40.172Z,62.96
2022-07-25T16:59:48.209Z,66.21
2022-07-25T17:04:54.990Z,66.34
2022-07-25T17:10:02.906Z,66.41
2022-07-25T17:15:10.670Z,68.21
2022-07-25T17:20:29.569Z,70.42
2022-07-25T17:25:35.629Z,70.53
2022-07-25T17:30:42.701Z,69.78
2022-07-25T17:35:55.497Z,73.72
2022-07-25T17:41:02.901Z,76.11
2022-07-25T17:46:20.550Z,78.72
2022-07-25T17:51:32.768Z,79.59
2022-07-25T17:56:46.715Z,79.54
2022-07-25T18:01:54.930Z,79.65
2022-07-25T18:07:06.540Z,75.75
2022-07-25T18:12:13.754Z,76.78
2022-07-25T18:17:19.998Z,77.36
2022-07-25T18:22:39.920Z,81.52
2022-07-25T18:27:54.370Z,81.58
2022-07-25T18:33:03.405Z,83.54
2022-07-25T18:38:12.279Z,85.34
2022-07-25T18:43:42.953Z,85.38
2022-07-25T18:48:58.813Z,80.93
2022-07-25T18:54:09.435Z,81.82
2022-07-25T18:59:20.518Z,85.45
2022-07-25T19:04:32.333Z,86.07
2022-07-25T19:09:45.743Z,84.73
2022-07-25T19:14:50.797Z,84.32
2022-07-25T19:19:58.055Z,85.70
2022-07-25T19:25:09.624Z,88.03
2022-07-25T19:30:21.226Z,90.37
2022-07-25T19:35:36.930Z,91.11
2022-07-25T19:40:56.460Z,91.58
2022-07-25T19:46:07.999Z,90.90
2022-07-25T19:51:34.924Z,91.54
2022-07-25T19:56:49.121Z,91.76
2022-07-25T20:01:53.576Z,91.55
2022-07-25T20:06:58.004Z,90.37
2022-07-25T20:12:03.973Z,91.87
2022-07-25T20:17:12.687Z,93.20
2022-07-25T20:22:21.549Z,92.59
2022-07-25T20:27:30.172Z,94.36
2022-07-25T20:32:37.935Z,94.32
2022-07-25T20:37:56.285Z,96.87
2022-07-25T20:43:15.647Z,98.47
2022-07-25T20:48:24.422Z,96.61
2022-07-25T20:53:37.651Z,96.63
2022-07-25T20:58:48.226Z,95.29
2022-07-25T21:04:07.030Z,94.91
2022-07-25T21:14:37.975Z,91.84
2022-07-25T21:19:42.999Z,91.50
2022-07-25T21:24:59.930Z,90.85
2022-07-25T21:30:11.189Z,90.50
2022-07-25T21:35:56.602Z,89.39
2022-07-25T21:41:20.263Z,90.04
2022-07-25T21:46:33.048Z,89.10
2022-07-25T21:51:41.236Z,88.17
2022-07-25T21:56:54.704Z,88.39
2022-07-25T22:02:06.921Z,88.34
2022-07-25T22:07:12.933Z,87.23
2022-07-25T22:12:28.865Z,88.13
2022-07-25T22:18:09.445Z,88.65
2022-07-25T22:23:33.611Z,88.83
2022-07-25T22:28:45.600Z,88.73
2022-07-25T22:33:56.518Z,89.17
2022-07-25T22:39:02.085Z,90.80
2022-07-25T22:44:12.412Z,91.48
2022-07-25T22:49:17.886Z,90.87
2022-07-25T22:54:35.681Z,91.21
2022-07-25T22:59:44.961Z,91.94
2022-07-25T23:05:02.731Z,91.69
2022-07-25T23:10:11.215Z,91.65
2022-07-25T23:15:17.524Z,91.39
2022-07-25T23:25:58.981Z,92.68
2022-07-25T23:31:07.781Z,92.84
2022-07-25T23:36:17.260Z,93.08
2022-07-25T23:41:32.288Z,93.20
2022-07-25T23:46:38.741Z,93.85
2022-07-25T23:51:51.368Z,94.38
2022-07-25T23:56:59.504Z,94.67
